Time;durP1;ratioP1;P1;durP2;ratioP2;P2;SDS_P1;SDS_P2;PMS_P1;PMS_P2;Temp;Humidity;BMP_temperature;BMP_pressure;BME280_temperature;BME280_humidity;BME280_pressure;Samples;Min_cycle;Max_cycle;Signal;HPM_P1;HPM_P2
2021/08/26 00:07:55;;;;;;;1.77;0.35;;;;;22.60;101574.00;;;;4991592;28;20251;-77
2021/08/26 00:10:24;;;;;;;3.05;0.30;;;;;22.60;101580.00;;;;4989851;28;20664;-77
2021/08/26 00:12:52;;;;;;;0.60;0.60;;;;;22.60;101576.00;;;;4991647;28;20300;-77
2021/08/26 00:15:19;;;;;;;1.42;0.50;;;;;22.60;101562.00;;;;4986389;28;20206;-77
2021/08/26 00:17:47;;;;;;;2.20;0.38;;;;;22.60;101555.00;;;;4991822;28;20197;-77
2021/08/26 00:20:15;;;;;;;0.68;0.38;;;;;22.60;101547.00;;;;4991531;28;20237;-78
2021/08/26 00:22:42;;;;;;;0.90;0.50;;;;;22.60;101548.00;;;;4991843;28;20663;-77
2021/08/26 00:25:11;;;;;;;1.60;0.50;;;;;22.60;101552.00;;;;4991875;28;20228;-77
2021/08/26 00:27:38;;;;;;;1.48;0.47;;;;;22.60;101547.00;;;;4992143;28;20209;-77
2021/08/26 00:30:07;;;;;;;2.45;0.65;;;;;22.50;101547.00;;;;4990466;28;20217;-76
2021/08/26 00:32:34;;;;;;;1.30;0.32;;;;;22.60;101549.00;;;;4991596;28;20233;-77
2021/08/26 00:35:02;;;;;;;2.30;0.47;;;;;22.50;101548.00;;;;4990898;28;20201;-78
2021/08/26 00:37:29;;;;;;;0.77;0.50;;;;;22.50;101554.00;;;;4991646;28;20214;-78
2021/08/26 00:39:56;;;;;;;2.85;0.98;;;;;22.50;101542.00;;;;4991111;28;20198;-78
2021/08/26 00:42:26;;;;;;;4.40;0.63;;;;;22.40;101536.00;;;;4991818;28;20213;-78
2021/08/26 00:44:54;;;;;;;1.45;0.90;;;;;22.50;101534.00;;;;4990703;28;20233;-79
2021/08/26 00:47:23;;;;;;;3.97;1.55;;;;;22.40;101529.00;;;;4991540;28;20216;-78
2021/08/26 00:49:52;;;;;;;2.30;1.63;;;;;22.40;101530.00;;;;4990941;28;20218;-78
2021/08/26 00:52:19;;;;;;;1.52;0.50;;;;;22.40;101528.00;;;;4991484;28;20241;-78
2021/08/26 00:54:47;;;;;;;2.80;0.70;;;;;22.40;101527.00;;;;4991340;28;20209;-78
2021/08/26 00:57:14;;;;;;;2.58;0.60;;;;;22.40;101512.00;;;;4990527;28;20202;-78
2021/08/26 00:59:43;;;;;;;1.92;0.60;;;;;22.30;101513.00;;;;4990987;28;20198;-78
2021/08/26 01:02:17;;;;;;;0.80;0.40;;;;;22.30;101506.00;;;;4991027;28;20667;-77
2021/08/26 01:04:49;;;;;;;2.55;0.88;;;;;22.30;101498.00;;;;4990488;28;20236;-78
2021/08/26 01:07:25;;;;;;;3.88;0.80;;;;;22.30;101493.00;;;;4990487;28;20225;-78
2021/08/26 01:09:59;;;;;;;2.28;0.73;;;;;22.30;101499.00;;;;4991132;28;20619;-78
2021/08/26 01:12:29;;;;;;;0.57;0.32;;;;;22.40;101506.00;;;;4991269;28;20213;-77
2021/08/26 01:14:59;;;;;;;1.92;0.60;;;;;22.40;101499.00;;;;4990143;28;20236;-79
2021/08/26 01:17:28;;;;;;;1.27;0.70;;;;;22.40;101499.00;;;;4990354;28;20213;-78
2021/08/26 01:19:57;;;;;;;2.58;1.20;;;;;22.40;101491.00;;;;4990583;28;20672;-78
2021/08/26 01:22:27;;;;;;;4.72;1.25;;;;;22.40;101495.00;;;;4990495;28;20212;-78
2021/08/26 01:24:57;;;;;;;1.63;0.80;;;;;22.40;101492.00;;;;4990325;28;20233;-78
2021/08/26 01:27:28;;;;;;;1.38;0.82;;;;;22.30;101505.00;;;;4990849;28;20244;-78
2021/08/26 01:29:56;;;;;;;2.50;1.15;;;;;22.30;101493.00;;;;4989949;28;20202;-78
2021/08/26 01:32:24;;;;;;;2.70;0.82;;;;;22.40;101497.00;;;;4990127;28;20233;-78
2021/08/26 01:34:52;;;;;;;2.53;1.02;;;;;22.40;101501.00;;;;4990064;28;20213;-77
2021/08/26 01:37:20;;;;;;;4.43;1.10;;;;;22.30;101501.00;;;;4990454;28;20201;-77
2021/08/26 01:39:49;;;;;;;1.42;0.77;;;;;22.30;101501.00;;;;4989924;28;20675;-78
2021/08/26 01:42:17;;;;;;;5.47;1.15;;;;;22.30;101501.00;;;;4989942;28;20213;-78
2021/08/26 01:44:46;;;;;;;2.47;0.93;;;;;22.30;101500.00;;;;4989747;28;20259;-78
2021/08/26 01:47:16;;;;;;;3.15;1.13;;;;;22.30;101494.00;;;;4990403;28;20311;-77
2021/08/26 01:49:43;;;;;;;4.10;1.30;;;;;22.30;101488.00;;;;4990053;28;20685;-78
2021/08/26 01:52:10;;;;;;;4.85;1.00;;;;;22.30;101483.00;;;;4990231;28;20256;-78
2021/08/26 01:54:38;;;;;;;2.45;1.00;;;;;22.30;101490.00;;;;4990362;28;20202;-78
2021/08/26 01:57:05;;;;;;;4.20;1.10;;;;;22.30;101490.00;;;;4989931;28;20217;-78
2021/08/26 01:59:33;;;;;;;3.17;1.50;;;;;22.20;101488.00;;;;4990449;28;20208;-77
2021/08/26 02:02:01;;;;;;;4.53;1.33;;;;;22.20;101487.00;;;;4990122;28;20305;-78
2021/08/26 02:04:28;;;;;;;2.67;1.25;;;;;22.20;101482.00;;;;4990057;28;20277;-78
2021/08/26 02:06:56;;;;;;;7.03;1.63;;;;;22.20;101486.00;;;;4990010;28;20215;-77
2021/08/26 02:09:23;;;;;;;2.78;1.23;;;;;22.20;101490.00;;;;4989707;28;20209;-77
2021/08/26 02:11:50;;;;;;;3.17;1.50;;;;;22.20;101487.00;;;;4989162;28;20600;-78
2021/08/26 02:14:17;;;;;;;5.28;1.20;;;;;22.20;101485.00;;;;4989588;28;20209;-78
2021/08/26 02:16:44;;;;;;;3.17;1.10;;;;;22.20;101489.00;;;;4989371;28;20201;-78
2021/08/26 02:19:13;;;;;;;5.38;2.10;;;;;22.20;101481.00;;;;4989929;28;20205;-78
2021/08/26 02:21:40;;;;;;;6.22;1.73;;;;;22.20;101484.00;;;;4989445;28;20198;-78
2021/08/26 02:24:08;;;;;;;4.07;1.48;;;;;22.20;101486.00;;;;4989238;28;20209;-78
2021/08/26 02:26:35;;;;;;;3.38;1.67;;;;;22.20;101483.00;;;;4989397;28;20216;-77
2021/08/26 02:29:02;;;;;;;4.35;1.80;;;;;22.10;101485.00;;;;4989661;28;20210;-78
2021/08/26 02:31:30;;;;;;;5.78;1.80;;;;;22.10;101485.00;;;;4989207;28;20613;-77
2021/08/26 02:33:58;;;;;;;5.32;1.23;;;;;22.10;101491.00;;;;4989305;28;20217;-78
2021/08/26 02:36:27;;;;;;;5.53;1.67;;;;;22.10;101481.00;;;;4989548;28;20212;-77
2021/08/26 02:38:54;;;;;;;2.63;1.30;;;;;22.10;101480.00;;;;4990093;28;20212;-77
2021/08/26 02:41:22;;;;;;;5.28;1.33;;;;;22.10;101488.00;;;;4989640;28;20552;-77
2021/08/26 02:43:49;;;;;;;3.67;1.45;;;;;22.10;101486.00;;;;4989172;28;20205;-77
2021/08/26 02:46:16;;;;;;;5.10;1.65;;;;;22.10;101489.00;;;;4989376;28;20229;-78
2021/08/26 02:48:43;;;;;;;3.97;1.40;;;;;22.10;101491.00;;;;4989080;28;20220;-78
2021/08/26 02:51:11;;;;;;;7.05;2.00;;;;;22.00;101479.00;;;;4989576;28;20205;-77
2021/08/26 02:53:39;;;;;;;4.35;1.10;;;;;22.00;101479.00;;;;4989562;28;20201;-78
2021/08/26 02:56:07;;;;;;;4.20;1.38;;;;;22.00;101475.00;;;;4988974;28;20209;-78
2021/08/26 02:58:34;;;;;;;8.10;1.88;;;;;22.00;101468.00;;;;4989773;28;20209;-78
2021/08/26 03:01:01;;;;;;;6.30;1.23;;;;;22.00;101473.00;;;;4988977;28;20197;-78
2021/08/26 03:03:28;;;;;;;7.35;1.60;;;;;22.00;101473.00;;;;4989139;28;20667;-78
2021/08/26 03:05:55;;;;;;;2.67;1.23;;;;;22.00;101465.00;;;;4988509;28;20229;-77
2021/08/26 03:08:23;;;;;;;5.25;1.50;;;;;22.00;101459.00;;;;4989392;28;20234;-78
2021/08/26 03:10:51;;;;;;;3.50;1.60;;;;;21.90;101461.00;;;;4988922;28;20208;-77
2021/08/26 03:13:19;;;;;;;3.38;1.40;;;;;22.00;101461.00;;;;4988766;28;20197;-78
2021/08/26 03:15:46;;;;;;;6.72;1.40;;;;;21.90;101463.00;;;;4977935;28;20197;-77
2021/08/26 03:18:13;;;;;;;4.15;1.35;;;;;21.90;101469.00;;;;4989293;28;20202;-78
2021/08/26 03:20:40;;;;;;;3.63;1.48;;;;;21.90;101472.00;;;;4989101;28;20206;-77
2021/08/26 03:23:08;;;;;;;3.72;1.05;;;;;21.90;101473.00;;;;4988910;28;20663;-77
2021/08/26 03:25:35;;;;;;;3.50;1.40;;;;;21.90;101472.00;;;;4989199;28;20229;-77
2021/08/26 03:28:04;;;;;;;2.75;1.30;;;;;21.90;101467.00;;;;4988506;28;20208;-78
2021/08/26 03:30:32;;;;;;;5.43;1.63;;;;;21.90;101472.00;;;;4989120;28;20229;-77
2021/08/26 03:32:59;;;;;;;2.30;1.10;;;;;21.90;101466.00;;;;4988024;28;20914;-78
2021/08/26 03:35:26;;;;;;;5.75;1.50;;;;;21.90;101454.00;;;;4989020;28;20208;-77
2021/08/26 03:37:53;;;;;;;4.65;1.48;;;;;21.90;101444.00;;;;4991075;28;20202;-77
2021/08/26 03:40:21;;;;;;;8.02;2.10;;;;;21.80;101448.00;;;;4991689;28;20225;-78
2021/08/26 03:42:48;;;;;;;4.82;1.30;;;;;21.80;101447.00;;;;4992153;28;20206;-78
2021/08/26 03:45:17;;;;;;;3.15;1.27;;;;;21.80;101449.00;;;;4991801;28;20643;-77
2021/08/26 03:47:44;;;;;;;5.05;1.27;;;;;21.80;101451.00;;;;4991445;28;20206;-77
2021/08/26 03:50:11;;;;;;;3.88;1.40;;;;;21.80;101442.00;;;;4991973;28;20209;-77
2021/08/26 03:52:39;;;;;;;5.18;1.23;;;;;21.80;101441.00;;;;4991258;28;20209;-78
2021/08/26 03:55:07;;;;;;;5.55;1.58;;;;;21.80;101451.00;;;;4991621;28;20206;-79
2021/08/26 03:57:34;;;;;;;7.32;2.30;;;;;21.80;101449.00;;;;4992317;28;20212;-78
2021/08/26 04:00:02;;;;;;;7.70;1.65;;;;;21.80;101444.00;;;;4991896;28;20213;-78
2021/08/26 04:02:30;;;;;;;7.25;1.60;;;;;21.70;101449.00;;;;4991991;28;20217;-78
2021/08/26 04:04:58;;;;;;;3.60;1.25;;;;;21.70;101445.00;;;;4992219;28;20221;-77
2021/08/26 04:07:25;;;;;;;5.93;1.65;;;;;21.70;101451.00;;;;4992047;28;20193;-78
2021/08/26 04:09:53;;;;;;;3.90;1.27;;;;;21.70;101444.00;;;;4991979;28;20640;-78
2021/08/26 04:12:20;;;;;;;4.55;1.40;;;;;21.70;101454.00;;;;4991909;28;20573;-77
2021/08/26 04:14:47;;;;;;;1.90;1.00;;;;;21.70;101450.00;;;;4990934;28;20209;-78
2021/08/26 04:17:14;;;;;;;4.43;1.15;;;;;21.70;101456.00;;;;4992413;28;20201;-78
2021/08/26 04:19:43;;;;;;;3.92;1.10;;;;;21.70;101453.00;;;;4991562;28;20197;-78
2021/08/26 04:22:10;;;;;;;5.07;1.50;;;;;21.70;101457.00;;;;4991931;28;20209;-77
2021/08/26 04:24:37;;;;;;;3.33;1.10;;;;;21.70;101453.00;;;;4991457;28;20698;-77
2021/08/26 04:27:05;;;;;;;3.58;0.98;;;;;21.70;101450.00;;;;4991431;28;20205;-77
2021/08/26 04:29:32;;;;;;;4.05;1.13;;;;;21.70;101462.00;;;;4991817;28;20217;-78
2021/08/26 04:31:59;;;;;;;3.45;1.30;;;;;21.70;101457.00;;;;4990729;28;20636;-78
2021/08/26 04:34:27;;;;;;;1.95;1.00;;;;;21.70;101461.00;;;;4992092;28;20194;-77
2021/08/26 04:36:55;;;;;;;4.03;1.23;;;;;21.70;101452.00;;;;4991687;28;20209;-78
2021/08/26 04:39:23;;;;;;;4.28;1.30;;;;;21.70;101445.00;;;;4991357;28;20206;-78
2021/08/26 04:41:50;;;;;;;4.93;1.20;;;;;21.70;101451.00;;;;4991397;28;20201;-77
2021/08/26 04:44:17;;;;;;;4.68;1.55;;;;;21.70;101441.00;;;;4991584;28;20210;-77
2021/08/26 04:46:44;;;;;;;3.63;1.45;;;;;21.70;101445.00;;;;4990505;28;20284;-77
2021/08/26 04:49:11;;;;;;;3.53;1.10;;;;;21.70;101446.00;;;;4991202;28;20206;-78
2021/08/26 04:51:39;;;;;;;5.82;1.52;;;;;21.70;101441.00;;;;4991473;28;20197;-78
2021/08/26 04:54:07;;;;;;;3.28;1.17;;;;;21.70;101436.00;;;;4991085;28;20217;-78
2021/08/26 04:56:34;;;;;;;6.03;1.30;;;;;21.70;101437.00;;;;4991080;28;20202;-75
2021/08/26 04:59:02;;;;;;;3.38;0.80;;;;;21.70;101434.00;;;;4990873;28;20260;-76
2021/08/26 05:01:29;;;;;;;2.97;1.15;;;;;21.70;101432.00;;;;4991340;28;20220;-77
2021/08/26 05:03:56;;;;;;;5.97;1.40;;;;;21.70;101426.00;;;;4990720;28;20682;-76
2021/08/26 05:06:24;;;;;;;5.97;1.40;;;;;21.70;101426.00;;;;4990514;28;20725;-77
2021/08/26 05:08:51;;;;;;;7.45;1.40;;;;;21.70;101424.00;;;;4990782;28;20213;-76
2021/08/26 05:11:22;;;;;;;3.28;1.10;;;;;21.70;101414.00;;;;4991142;28;20202;-77
2021/08/26 05:13:49;;;;;;;2.78;1.02;;;;;21.70;101419.00;;;;4990516;28;20614;-76
2021/08/26 05:16:16;;;;;;;4.47;0.90;;;;;21.70;101421.00;;;;4990254;28;20206;-77
2021/08/26 05:18:44;;;;;;;5.47;1.45;;;;;21.80;101422.00;;;;4990643;28;20413;-77
2021/08/26 05:21:11;;;;;;;4.18;1.15;;;;;21.80;101425.00;;;;4990326;28;20210;-76
2021/08/26 05:23:39;;;;;;;3.20;1.10;;;;;21.70;101427.00;;;;4990662;28;20202;-76
2021/08/26 05:26:06;;;;;;;3.47;1.08;;;;;21.70;101426.00;;;;4990742;28;20235;-77
2021/08/26 05:28:34;;;;;;;4.07;1.00;;;;;21.70;101425.00;;;;4990681;28;20197;-76
2021/08/26 05:31:02;;;;;;;3.53;0.68;;;;;21.80;101426.00;;;;4989806;28;20694;-77
2021/08/26 05:33:29;;;;;;;3.00;0.52;;;;;21.80;101438.00;;;;4990777;28;20202;-76
2021/08/26 05:35:56;;;;;;;5.75;1.38;;;;;21.80;101441.00;;;;4989723;28;20209;-77
2021/08/26 05:38:23;;;;;;;3.58;0.77;;;;;21.80;101437.00;;;;4990238;28;20213;-76
2021/08/26 05:40:51;;;;;;;3.05;0.88;;;;;21.80;101441.00;;;;4990258;28;20667;-76
2021/08/26 05:43:18;;;;;;;3.50;1.63;;;;;21.80;101433.00;;;;4990390;28;20208;-77
2021/08/26 05:45:46;;;;;;;5.53;0.98;;;;;21.80;101426.00;;;;4989684;28;20252;-76
2021/08/26 05:48:13;;;;;;;2.92;0.77;;;;;21.80;101430.00;;;;4990285;28;20208;-77
2021/08/26 05:50:41;;;;;;;3.28;0.90;;;;;21.80;101428.00;;;;4989944;28;20197;-76
2021/08/26 05:53:08;;;;;;;2.40;0.73;;;;;21.80;101432.00;;;;4990084;28;20202;-77
2021/08/26 05:55:35;;;;;;;4.25;0.98;;;;;21.80;101427.00;;;;4990232;28;20210;-77
2021/08/26 05:58:03;;;;;;;3.25;1.10;;;;;21.80;101433.00;;;;4990154;28;20201;-76
2021/08/26 06:00:30;;;;;;;4.70;1.17;;;;;21.80;101427.00;;;;4989195;28;20691;-76
2021/08/26 06:02:59;;;;;;;3.45;0.85;;;;;21.80;101429.00;;;;4989557;28;20209;-76
2021/08/26 06:05:26;;;;;;;7.43;1.05;;;;;21.90;101434.00;;;;4990166;28;20248;-77
2021/08/26 06:07:53;;;;;;;4.15;0.77;;;;;21.90;101438.00;;;;4989767;28;20690;-76
2021/08/26 06:10:20;;;;;;;2.58;0.77;;;;;21.90;101433.00;;;;4989428;28;20206;-76
2021/08/26 06:12:48;;;;;;;2.72;0.80;;;;;21.90;101434.00;;;;4990029;28;20217;-76
2021/08/26 06:15:15;;;;;;;1.10;0.60;;;;;21.90;101428.00;;;;4978153;28;20217;-76
2021/08/26 06:17:43;;;;;;;8.80;1.00;;;;;21.90;101437.00;;;;4989750;28;20233;-76
2021/08/26 06:20:14;;;;;;;1.55;0.75;;;;;21.90;101440.00;;;;4989861;28;20581;-76
2021/08/26 06:22:42;;;;;;;4.63;0.65;;;;;21.90;101436.00;;;;4988838;28;20216;-77
2021/08/26 06:25:11;;;;;;;3.80;1.00;;;;;22.00;101429.00;;;;4989661;28;20197;-77
2021/08/26 06:27:39;;;;;;;5.68;0.90;;;;;22.00;101432.00;;;;4989712;28;20229;-76
2021/08/26 06:30:09;;;;;;;4.35;0.80;;;;;22.00;101438.00;;;;4988856;28;20217;-76
2021/08/26 06:32:37;;;;;;;3.53;1.10;;;;;22.00;101432.00;;;;4989255;28;20265;-76
2021/08/26 06:35:06;;;;;;;2.10;0.80;;;;;22.10;101427.00;;;;4989273;28;20213;-76
2021/08/26 06:37:35;;;;;;;1.83;0.85;;;;;22.10;101425.00;;;;4990073;28;20198;-77
2021/08/26 06:40:02;;;;;;;3.50;1.00;;;;;22.10;101430.00;;;;4989218;28;20215;-77
2021/08/26 06:42:29;;;;;;;2.72;1.02;;;;;22.20;101426.00;;;;4989530;28;20201;-77
2021/08/26 06:44:56;;;;;;;6.20;1.05;;;;;22.20;101420.00;;;;4989586;28;20197;-76
2021/08/26 06:47:24;;;;;;;2.97;1.05;;;;;22.20;101433.00;;;;4969735;28;20233;-77
2021/08/26 06:49:51;;;;;;;3.90;1.10;;;;;22.30;101434.00;;;;4970149;28;20656;-76
2021/08/26 06:52:18;;;;;;;3.70;0.93;;;;;22.30;101432.00;;;;4969489;28;20217;-77
2021/08/26 06:54:47;;;;;;;3.70;1.15;;;;;22.30;101434.00;;;;4970016;28;20215;-76
2021/08/26 06:57:14;;;;;;;4.75;1.08;;;;;22.40;101434.00;;;;4969882;28;20202;-76
2021/08/26 06:59:42;;;;;;;2.58;0.90;;;;;22.40;101431.00;;;;4969912;28;20210;-77
2021/08/26 07:02:09;;;;;;;3.05;0.93;;;;;22.50;101436.00;;;;4972249;28;20209;-76
2021/08/26 07:04:36;;;;;;;4.40;0.65;;;;;22.50;101436.00;;;;4989053;28;20205;-77
2021/08/26 07:07:03;;;;;;;2.47;0.65;;;;;22.60;101433.00;;;;4989059;28;20257;-77
2021/08/26 07:09:31;;;;;;;4.10;0.80;;;;;22.60;101432.00;;;;4989682;28;20197;-76
2021/08/26 07:11:59;;;;;;;3.30;0.80;;;;;22.60;101440.00;;;;4990899;28;20228;-77
2021/08/26 07:14:26;;;;;;;1.67;0.60;;;;;22.60;101431.00;;;;4992280;28;20205;-76
2021/08/26 07:16:54;;;;;;;2.67;1.23;;;;;22.60;101436.00;;;;4992970;28;20590;-77
2021/08/26 07:19:21;;;;;;;4.25;0.80;;;;;22.60;101443.00;;;;4992994;28;20221;-76
2021/08/26 07:21:48;;;;;;;5.70;1.13;;;;;22.70;101434.00;;;;4992693;28;20206;-77
2021/08/26 07:24:16;;;;;;;1.45;0.70;;;;;22.70;101430.00;;;;4992902;28;20229;-76
2021/08/26 07:26:43;;;;;;;4.90;1.02;;;;;22.70;101431.00;;;;4992285;28;20321;-77
2021/08/26 07:29:12;;;;;;;5.97;0.90;;;;;22.70;101448.00;;;;4992811;28;20206;-77
2021/08/26 07:31:39;;;;;;;2.38;1.00;;;;;22.80;101448.00;;;;4992526;28;20241;-77
2021/08/26 07:34:06;;;;;;;6.30;1.00;;;;;22.80;101452.00;;;;4993169;28;20613;-76
2021/08/26 07:36:33;;;;;;;2.38;1.20;;;;;22.70;101452.00;;;;4992491;28;20218;-76
2021/08/26 07:39:01;;;;;;;3.13;0.55;;;;;22.70;101446.00;;;;4992376;28;20213;-78
2021/08/26 07:41:29;;;;;;;2.90;0.80;;;;;22.70;101432.00;;;;4992587;28;20292;-77
2021/08/26 07:43:57;;;;;;;2.42;0.73;;;;;22.80;101430.00;;;;4992477;28;20205;-77
2021/08/26 07:46:26;;;;;;;3.42;0.80;;;;;22.80;101424.00;;;;4992332;28;20232;-76
2021/08/26 07:48:53;;;;;;;5.13;1.08;;;;;22.90;101425.00;;;;4991955;28;20285;-76
2021/08/26 07:51:20;;;;;;;6.15;1.10;;;;;22.90;101438.00;;;;4992451;28;20216;-76
2021/08/26 07:53:47;;;;;;;3.72;0.93;;;;;22.90;101439.00;;;;4992004;28;20210;-77
2021/08/26 07:56:15;;;;;;;3.90;0.80;;;;;22.90;101430.00;;;;4992119;28;20201;-76
2021/08/26 07:58:42;;;;;;;5.50;0.80;;;;;23.00;101435.00;;;;4991558;28;20193;-77
2021/08/26 08:01:09;;;;;;;4.53;0.80;;;;;23.10;101433.00;;;;4992107;28;20202;-77
2021/08/26 08:03:38;;;;;;;4.15;1.00;;;;;23.10;101429.00;;;;4992197;28;20209;-77
2021/08/26 08:06:05;;;;;;;3.42;0.80;;;;;23.20;101431.00;;;;4992213;28;20206;-77
2021/08/26 08:08:33;;;;;;;5.95;0.68;;;;;23.20;101436.00;;;;4992226;28;20309;-77
2021/08/26 08:11:00;;;;;;;3.42;0.82;;;;;23.20;101431.00;;;;4992068;28;20304;-77
2021/08/26 08:13:28;;;;;;;2.53;0.65;;;;;23.30;101431.00;;;;4990881;28;20667;-78
2021/08/26 08:15:55;;;;;;;2.83;0.70;;;;;23.40;101431.00;;;;4992183;28;20212;-77
2021/08/26 08:18:22;;;;;;;2.67;1.55;;;;;23.40;101429.00;;;;4992102;28;20224;-77
2021/08/26 08:20:51;;;;;;;1.10;0.22;;;;;23.40;101427.00;;;;4991336;28;20206;-77
2021/08/26 08:23:18;;;;;;;2.33;0.70;;;;;23.50;101428.00;;;;4991348;28;20675;-77
2021/08/26 08:25:45;;;;;;;3.28;0.60;;;;;23.50;101422.00;;;;4991282;28;20224;-76
2021/08/26 08:28:15;;;;;;;3.25;1.13;;;;;23.50;101424.00;;;;4991527;28;20833;-76
2021/08/26 08:30:43;;;;;;;4.53;0.60;;;;;23.60;101421.00;;;;4991324;28;20221;-77
2021/08/26 08:33:10;;;;;;;1.85;0.50;;;;;23.60;101423.00;;;;4991481;28;20206;-77
2021/08/26 08:35:38;;;;;;;1.33;0.52;;;;;23.70;101418.00;;;;4991339;28;20216;-77
2021/08/26 08:38:06;;;;;;;1.63;0.50;;;;;23.70;101421.00;;;;4991580;28;20206;-77
2021/08/26 08:40:34;;;;;;;2.38;0.40;;;;;23.80;101417.00;;;;4991689;28;20206;-77
2021/08/26 08:43:01;;;;;;;3.05;0.70;;;;;23.80;101420.00;;;;4991603;28;20209;-78
2021/08/26 08:45:29;;;;;;;2.67;0.70;;;;;23.80;101423.00;;;;4990863;28;20209;-77
2021/08/26 08:47:58;;;;;;;3.50;0.90;;;;;23.80;101435.00;;;;4991364;28;20283;-77
2021/08/26 08:50:27;;;;;;;2.20;0.45;;;;;23.80;101430.00;;;;4991627;28;20628;-77
2021/08/26 08:52:55;;;;;;;5.03;0.73;;;;;23.70;101426.00;;;;4990934;28;20206;-77
2021/08/26 08:55:24;;;;;;;3.15;0.68;;;;;23.70;101418.00;;;;4991447;28;20209;-76
2021/08/26 08:57:51;;;;;;;3.22;0.70;;;;;23.80;101423.00;;;;4990674;28;20256;-77
2021/08/26 09:00:20;;;;;;;1.52;0.43;;;;;23.90;101421.00;;;;4991012;28;20218;-76
2021/08/26 09:02:47;;;;;;;1.95;0.40;;;;;23.90;101421.00;;;;4990624;28;20197;-77
2021/08/26 09:05:15;;;;;;;2.60;0.60;;;;;24.00;101423.00;;;;4990983;28;20205;-78
2021/08/26 09:07:42;;;;;;;5.43;0.73;;;;;24.00;101423.00;;;;4990674;28;20344;-77
2021/08/26 09:10:12;;;;;;;2.05;0.50;;;;;24.00;101431.00;;;;4990842;28;20204;-77
2021/08/26 09:12:52;;;;;;;2.38;0.82;;;;;23.90;101431.00;;;;4990981;28;20252;-77
2021/08/26 09:15:22;;;;;;;2.03;0.65;;;;;24.00;101431.00;;;;4981158;28;20198;-77
2021/08/26 09:17:50;;;;;;;1.75;0.60;;;;;24.00;101427.00;;;;4990164;28;20260;-77
2021/08/26 09:20:19;;;;;;;1.67;0.77;;;;;24.10;101432.00;;;;4990581;28;20217;-77
2021/08/26 09:22:48;;;;;;;2.05;0.80;;;;;24.20;101419.00;;;;4990756;28;20206;-77
2021/08/26 09:25:25;;;;;;;2.83;1.20;;;;;24.20;101425.00;;;;4990045;28;20225;-77
2021/08/26 09:27:54;;;;;;;1.95;0.70;;;;;24.40;101424.00;;;;4990379;28;20225;-77
2021/08/26 09:30:22;;;;;;;3.90;1.10;;;;;24.40;101423.00;;;;4990331;28;20213;-77
2021/08/26 09:32:57;;;;;;;4.70;0.82;;;;;24.40;101426.00;;;;4990594;28;20234;-76
2021/08/26 09:35:28;;;;;;;2.17;0.70;;;;;24.40;101417.00;;;;4989479;28;20205;-77
2021/08/26 09:37:57;;;;;;;4.38;1.10;;;;;24.40;101414.00;;;;4990682;28;20256;-77
2021/08/26 09:40:27;;;;;;;3.72;0.90;;;;;24.40;101427.00;;;;4990906;28;20202;-77
2021/08/26 09:43:01;;;;;;;2.00;0.85;;;;;24.30;101418.00;;;;4990781;28;20198;-77
2021/08/26 09:45:29;;;;;;;1.88;0.82;;;;;24.40;101422.00;;;;4989942;28;20599;-77
2021/08/26 09:48:08;;;;;;;3.25;1.08;;;;;24.30;101427.00;;;;4990472;28;20236;-76
2021/08/26 09:50:41;;;;;;;2.60;1.25;;;;;24.30;101426.00;;;;4990542;28;20209;-77
2021/08/26 09:53:09;;;;;;;2.70;0.90;;;;;24.30;101420.00;;;;4990186;28;20209;-76
2021/08/26 09:55:58;;;;;;;2.10;1.02;;;;;24.20;101426.00;;;;4990355;28;20233;-78
2021/08/26 09:58:28;;;;;;;3.08;1.30;;;;;24.30;101428.00;;;;4989509;28;20208;-77
2021/08/26 10:01:13;;;;;;;7.38;1.40;;;;;24.30;101435.00;;;;4989880;28;20209;-77
2021/08/26 10:03:41;;;;;;;5.05;1.73;;;;;24.40;101430.00;;;;4990046;28;20630;-77
2021/08/26 10:06:09;;;;;;;2.45;1.02;;;;;24.30;101426.00;;;;4989926;28;20200;-77
2021/08/26 10:08:36;;;;;;;3.75;1.30;;;;;24.30;101437.00;;;;4990203;28;20232;-77
2021/08/26 10:11:05;;;;;;;5.13;1.08;;;;;24.30;101430.00;;;;4989055;28;20757;-77
2021/08/26 10:13:33;;;;;;;4.30;1.20;;;;;24.30;101426.00;;;;4990154;28;20213;-77
2021/08/26 10:16:01;;;;;;;4.38;1.25;;;;;24.30;101427.00;;;;4970413;28;20214;-76
2021/08/26 10:18:29;;;;;;;3.63;1.00;;;;;24.30;101432.00;;;;4969691;28;20295;-77
2021/08/26 10:20:57;;;;;;;3.47;1.35;;;;;24.30;101429.00;;;;4970656;28;20242;-77
2021/08/26 10:23:26;;;;;;;2.90;1.30;;;;;24.30;101437.00;;;;4969988;28;20510;-76
2021/08/26 10:25:56;;;;;;;2.70;0.85;;;;;24.20;101434.00;;;;4970348;28;20443;-77
2021/08/26 10:28:24;;;;;;;4.70;0.88;;;;;24.20;101437.00;;;;4969564;28;20304;-76
2021/08/26 10:30:53;;;;;;;4.05;1.40;;;;;24.20;101435.00;;;;4969237;28;20711;-76
2021/08/26 10:33:24;;;;;;;4.70;1.10;;;;;24.20;101448.00;;;;4969044;28;20695;-77
2021/08/26 10:36:03;;;;;;;5.38;1.27;;;;;24.10;101443.00;;;;4969517;28;20214;-77
2021/08/26 10:38:32;;;;;;;4.43;1.33;;;;;24.20;101452.00;;;;4969664;28;20206;-77
2021/08/26 10:41:20;;;;;;;6.78;1.20;;;;;24.20;101444.00;;;;4970171;28;20758;-77
2021/08/26 10:43:57;;;;;;;3.25;1.10;;;;;24.10;101455.00;;;;4977311;28;20644;-76
2021/08/26 10:46:50;;;;;;;3.72;1.23;;;;;24.10;101451.00;;;;4991217;28;20344;-76
2021/08/26 10:49:18;;;;;;;2.72;1.13;;;;;24.20;101446.00;;;;4993379;28;20205;-76
2021/08/26 10:51:47;;;;;;;6.90;1.48;;;;;24.20;101445.00;;;;4993447;28;20217;-76
2021/08/26 10:54:28;;;;;;;3.85;1.70;;;;;24.20;101451.00;;;;4993203;28;20202;-77
2021/08/26 10:56:55;;;;;;;3.17;1.20;;;;;24.30;101441.00;;;;4992888;28;20228;-76
2021/08/26 10:59:30;;;;;;;3.92;1.20;;;;;24.30;101454.00;;;;4992799;28;20205;-77
2021/08/26 11:02:00;;;;;;;3.97;1.52;;;;;24.30;101440.00;;;;4992917;28;20201;-77
2021/08/26 11:04:30;;;;;;;4.78;1.60;;;;;24.40;101442.00;;;;4993682;28;20572;-76
2021/08/26 11:06:58;;;;;;;4.35;1.50;;;;;24.40;101441.00;;;;4993067;28;20216;-76
2021/08/26 11:09:39;;;;;;;4.30;1.45;;;;;24.40;101441.00;;;;4993228;28;20228;-76
2021/08/26 11:12:25;;;;;;;4.40;1.40;;;;;24.30;101444.00;;;;4992796;28;20233;-77
2021/08/26 11:14:54;;;;;;;6.65;1.33;;;;;24.40;101445.00;;;;4992944;28;20198;-76
2021/08/26 11:17:46;;;;;;;4.57;1.60;;;;;24.20;101451.00;;;;4992747;28;20380;-76
2021/08/26 11:20:31;;;;;;;3.47;1.42;;;;;24.20;101453.00;;;;4978771;28;20209;-76
2021/08/26 11:23:10;;;;;;;4.05;1.40;;;;;24.10;101454.00;;;;4992978;28;20296;-76
2021/08/26 11:25:37;;;;;;;6.03;1.67;;;;;24.20;101449.00;;;;4992967;28;20213;-77
2021/08/26 11:28:30;;;;;;;6.07;2.10;;;;;24.00;101446.00;;;;4992752;28;20233;-77
2021/08/26 11:31:20;;;;;;;6.60;1.73;;;;;24.00;101452.00;;;;4992165;28;20233;-78
2021/08/26 11:33:50;;;;;;;2.53;1.15;;;;;24.10;101452.00;;;;4988600;28;20201;-78
2021/08/26 11:36:18;;;;;;;3.75;1.35;;;;;24.10;101454.00;;;;4992072;28;20591;-77
2021/08/26 11:38:53;;;;;;;5.35;1.67;;;;;24.10;101448.00;;;;4992527;28;20306;-77
2021/08/26 11:41:21;;;;;;;7.30;2.10;;;;;24.10;101443.00;;;;4992796;28;20201;-77
2021/08/26 11:43:48;;;;;;;4.97;1.50;;;;;24.20;101440.00;;;;4992092;28;20618;-77
2021/08/26 11:46:17;;;;;;;4.65;2.17;;;;;24.20;101444.00;;;;4992460;28;20205;-77
2021/08/26 11:48:51;;;;;;;5.63;1.63;;;;;24.20;101440.00;;;;4991766;28;20624;-77
2021/08/26 11:51:30;;;;;;;3.53;1.73;;;;;24.20;101431.00;;;;4992179;28;20216;-77
2021/08/26 11:54:12;;;;;;;4.20;1.60;;;;;24.30;101430.00;;;;4992590;28;20275;-78
2021/08/26 11:56:44;;;;;;;7.35;1.85;;;;;24.40;101430.00;;;;4992423;28;20213;-77
2021/08/26 11:59:24;;;;;;;8.15;2.03;;;;;24.30;101435.00;;;;4992015;28;20206;-77
2021/08/26 12:02:11;;;;;;;6.03;1.77;;;;;24.40;101430.00;;;;4991806;28;20216;-76
2021/08/26 12:04:40;;;;;;;3.60;1.45;;;;;24.40;101435.00;;;;4992154;28;20202;-76
2021/08/26 12:07:07;;;;;;;5.93;1.75;;;;;24.40;101436.00;;;;4991875;28;20694;-77
2021/08/26 12:09:35;;;;;;;2.35;1.20;;;;;24.50;101439.00;;;;4992216;28;20217;-77
2021/08/26 12:12:10;;;;;;;4.22;1.33;;;;;24.40;101445.00;;;;4991752;28;20612;-77
2021/08/26 12:14:38;;;;;;;3.88;1.17;;;;;24.50;101436.00;;;;4989366;28;20193;-77
2021/08/26 12:17:13;;;;;;;3.78;1.10;;;;;24.50;101439.00;;;;4983135;28;20209;-77
2021/08/26 12:19:42;;;;;;;5.53;1.77;;;;;24.60;101427.00;;;;4984498;28;20198;-77
2021/08/26 12:22:09;;;;;;;3.58;1.27;;;;;24.70;101429.00;;;;4972478;28;20206;-77
2021/08/26 12:24:48;;;;;;;2.58;1.17;;;;;24.80;101443.00;;;;4972685;28;20575;-77